Time;durP1;ratioP1;P1;durP2;ratioP2;P2;SDS_P1;SDS_P2;PMS_P1;PMS_P2;Temp;Humidity;BMP_temperature;BMP_pressure;BME280_temperature;BME280_humidity;BME280_pressure;Samples;Min_cycle;Max_cycle;Signal;HPM_P1;HPM_P2
2022/01/27 00:00:49;;;;;;;17.73;7.18;;;;;;;-0.08;99.90;99622.34;4466623;32;20172;-71
2022/01/27 00:06:07;;;;;;;19.40;7.32;;;;;;;-0.22;99.97;99623.62;4484227;31;20129;-71
2022/01/27 00:08:48;;;;;;;23.12;8.20;;;;;;;-0.11;99.61;99619.87;4516369;31;20091;-71
2022/01/27 00:11:16;;;;;;;18.83;7.85;;;;;;;-0.17;99.22;99615.75;4516395;31;20068;-71
2022/01/27 00:13:48;;;;;;;20.25;8.13;;;;;;;-0.14;98.99;99620.81;4501893;31;20100;-71
2022/01/27 00:16:29;;;;;;;19.83;7.28;;;;;;;-0.29;99.29;99614.38;4516220;31;20087;-71
2022/01/27 00:18:57;;;;;;;13.40;5.62;;;;;;;-0.22;99.14;99618.47;4516274;31;20118;-71
2022/01/27 00:21:27;;;;;;;16.40;7.45;;;;;;;-0.38;99.17;99619.81;4516112;31;20160;-71
2022/01/27 00:23:55;;;;;;;23.33;8.55;;;;;;;-0.48;100.00;99621.03;4516134;31;20091;-71
2022/01/27 00:26:23;;;;;;;16.87;7.82;;;;;;;-0.32;99.67;99627.34;4516175;31;20163;-71
2022/01/27 00:28:50;;;;;;;20.08;7.97;;;;;;;-0.39;99.69;99625.88;4515885;31;20409;-71
2022/01/27 00:31:19;;;;;;;24.42;8.43;;;;;;;-0.30;99.36;99622.16;4516077;31;20547;-71
2022/01/27 00:33:47;;;;;;;22.52;8.90;;;;;;;-0.33;98.92;99625.69;4493905;31;20185;-71
2022/01/27 00:36:15;;;;;;;26.20;8.48;;;;;;;-0.30;99.04;99625.59;4500709;31;20096;-71
2022/01/27 00:38:43;;;;;;;23.25;8.95;;;;;;;-0.30;99.56;99627.31;4502114;31;20096;-71
2022/01/27 00:41:11;;;;;;;18.67;7.60;;;;;;;-0.27;99.17;99624.62;4502090;31;20575;-71
2022/01/27 00:43:38;;;;;;;23.17;8.38;;;;;;;-0.27;98.92;99622.94;4501942;31;20092;-71
2022/01/27 00:46:11;;;;;;;26.70;8.50;;;;;;;-0.19;98.39;99620.94;4502385;31;20114;-71
2022/01/27 00:48:38;;;;;;;19.02;8.70;;;;;;;-0.21;98.41;99622.75;4502085;31;20124;-71
2022/01/27 00:51:08;;;;;;;21.73;8.68;;;;;;;-0.22;98.30;99627.94;4502406;31;20089;-71
2022/01/27 00:57:15;;;;;;;24.02;8.70;;;;;;;-0.30;98.68;99620.44;4501952;31;20442;-71
2022/01/27 00:59:34;;;;;;;20.17;8.10;;;;;;;-0.27;98.44;99620.34;4488183;31;20088;-71
2022/01/27 01:04:48;;;;;;;23.75;8.15;;;;;;;-0.31;98.13;99610.19;4436820;32;20121;-71
2022/01/27 01:07:16;;;;;;;25.73;9.27;;;;;;;-0.44;98.65;99612.28;4436808;32;20193;-71
2022/01/27 01:15:24;;;;;;;23.23;8.85;;;;;;;-0.33;97.87;99610.25;4436772;32;20132;-71
2022/01/27 01:18:00;;;;;;;27.98;9.63;;;;;;;-0.37;98.08;99598.34;4436899;32;20120;-71
2022/01/27 01:34:27;;;;;;;25.62;9.32;;;;;;;-0.58;98.62;99589.56;4431783;32;20494;-71
2022/01/27 01:36:57;;;;;;;23.30;9.98;;;;;;;-0.68;99.17;99583.00;4436615;32;20109;-71
2022/01/27 01:39:31;;;;;;;26.60;9.25;;;;;;;-0.66;99.28;99582.06;4436550;32;20174;-71
2022/01/27 01:42:00;;;;;;;21.15;8.98;;;;;;;-0.55;98.37;99590.28;4453713;32;20116;-71
2022/01/27 01:44:27;;;;;;;23.00;9.07;;;;;;;-0.60;98.44;99584.47;4467518;32;20124;-71
2022/01/27 01:46:55;;;;;;;25.45;9.48;;;;;;;-0.64;98.52;99585.44;4467378;32;20116;-71
2022/01/27 01:49:26;;;;;;;20.65;8.98;;;;;;;-0.62;98.80;99583.66;4467596;32;20144;-71
2022/01/27 01:51:55;;;;;;;20.23;8.63;;;;;;;-0.63;99.04;99588.87;4468037;32;20142;-71
2022/01/27 01:54:24;;;;;;;28.30;9.68;;;;;;;-0.54;98.47;99584.28;4467560;32;20551;-71
2022/01/27 01:56:52;;;;;;;22.52;9.48;;;;;;;-0.41;97.96;99592.47;4467771;32;20466;-71
2022/01/27 01:59:19;;;;;;;25.42;9.60;;;;;;;-0.37;97.34;99593.22;4469534;31;20455;-71
2022/01/27 02:01:47;;;;;;;23.58;8.70;;;;;;;-0.44;97.57;99591.69;4517357;31;20444;-71
2022/01/27 02:04:14;;;;;;;23.77;9.73;;;;;;;-0.32;96.98;99590.47;4517327;31;20091;-71
2022/01/27 02:06:52;;;;;;;23.38;8.80;;;;;;;-0.26;96.55;99596.31;4517347;31;20634;-71
2022/01/27 02:20:06;;;;;;;24.65;9.52;;;;;;;-0.27;96.34;99576.59;4517370;31;20095;-71
2022/01/27 02:22:34;;;;;;;23.02;9.45;;;;;;;-0.29;96.92;99570.62;4517302;31;20433;-71
2022/01/27 02:25:02;;;;;;;21.33;8.35;;;;;;;-0.23;96.41;99565.31;4517181;31;20211;-71
2022/01/27 02:27:29;;;;;;;17.83;7.28;;;;;;;-0.29;96.10;99554.34;4517143;31;20115;-71
2022/01/27 02:29:57;;;;;;;19.67;8.68;;;;;;;-0.22;96.20;99556.66;4517081;31;20083;-71
2022/01/27 02:32:24;;;;;;;20.70;8.27;;;;;;;-0.21;96.07;99557.53;4517035;31;20453;-71
2022/01/27 02:34:52;;;;;;;22.45;7.50;;;;;;;-0.24;96.19;99553.31;4517324;31;20112;-71
2022/01/27 02:37:19;;;;;;;26.02;7.90;;;;;;;-0.27;95.98;99556.00;4517072;31;20092;-71
2022/01/27 02:39:46;;;;;;;26.92;8.65;;;;;;;-0.25;95.78;99551.63;4517266;31;20095;-71
2022/01/27 02:42:33;;;;;;;26.92;9.57;;;;;;;-0.31;96.11;99546.66;4517245;31;20087;-71
2022/01/27 02:45:03;;;;;;;24.23;9.43;;;;;;;-0.27;95.82;99540.53;4517054;31;20413;-71
2022/01/27 02:47:31;;;;;;;18.60;8.02;;;;;;;-0.32;95.97;99534.69;4517327;31;20148;-71
2022/01/27 02:49:58;;;;;;;22.90;8.60;;;;;;;-0.33;95.52;99527.00;4516861;31;20092;-71
2022/01/27 02:52:25;;;;;;;21.37;8.52;;;;;;;-0.28;95.67;99530.28;4517192;31;20091;-71
2022/01/27 02:54:53;;;;;;;21.90;8.70;;;;;;;-0.34;95.74;99522.75;4517020;31;20092;-71
2022/01/27 02:57:25;;;;;;;16.98;8.35;;;;;;;-0.27;95.03;99524.22;4516886;31;20131;-71
2022/01/27 02:59:52;;;;;;;26.83;9.10;;;;;;;-0.32;95.06;99523.56;4515925;31;20524;-71
2022/01/27 03:02:20;;;;;;;19.77;7.12;;;;;;;-0.33;94.49;99524.44;4516970;31;20158;-71
2022/01/27 03:04:47;;;;;;;31.08;9.00;;;;;;;-0.28;93.77;99525.12;4517144;31;20091;-71
2022/01/27 03:07:15;;;;;;;22.67;7.45;;;;;;;-0.30;93.77;99527.75;4516886;31;20112;-71
2022/01/27 03:09:42;;;;;;;19.52;8.23;;;;;;;-0.29;93.65;99526.03;4502543;31;20108;-71
2022/01/27 03:12:12;;;;;;;16.87;7.78;;;;;;;-0.26;93.13;99533.66;4517015;31;20088;-71
2022/01/27 03:14:41;;;;;;;18.00;7.30;;;;;;;-0.33;93.37;99538.16;4516779;31;20118;-71
2022/01/27 03:17:10;;;;;;;17.77;7.78;;;;;;;-0.30;93.29;99543.22;4516858;31;20099;-71
2022/01/27 03:19:37;;;;;;;20.60;8.15;;;;;;;-0.30;92.73;99547.50;4516784;31;20392;-71
2022/01/27 03:22:05;;;;;;;21.35;7.65;;;;;;;-0.27;92.79;99558.56;4516796;31;20175;-71
2022/01/27 03:24:33;;;;;;;15.65;6.90;;;;;;;-0.29;92.55;99554.34;4516814;31;20114;-71
2022/01/27 03:27:01;;;;;;;19.77;7.20;;;;;;;-0.25;92.10;99561.09;4516801;31;20099;-71
2022/01/27 03:29:28;;;;;;;15.95;7.28;;;;;;;-0.32;92.38;99557.84;4516549;31;20210;-71
2022/01/27 03:31:56;;;;;;;16.23;7.65;;;;;;;-0.27;91.95;99555.12;4516694;31;20092;-71
2022/01/27 03:34:23;;;;;;;16.27;6.30;;;;;;;-0.33;91.68;99553.63;4505422;31;20100;-71
2022/01/27 03:36:51;;;;;;;11.90;5.03;;;;;;;-0.31;91.15;99556.12;4500701;31;20091;-71
2022/01/27 03:39:21;;;;;;;14.77;6.57;;;;;;;-0.27;90.96;99555.12;4500673;31;20446;-71
2022/01/27 03:41:53;;;;;;;19.12;7.75;;;;;;;-0.29;90.94;99551.78;4500665;31;20464;-71
2022/01/27 03:44:21;;;;;;;15.32;6.57;;;;;;;-0.31;91.28;99545.84;4500868;31;20110;-71
2022/01/27 03:46:50;;;;;;;14.00;6.30;;;;;;;-0.28;91.14;99541.41;4500653;31;20089;-71
2022/01/27 03:49:17;;;;;;;15.60;6.75;;;;;;;-0.30;90.25;99543.22;4499568;31;20500;-71
2022/01/27 03:51:45;;;;;;;15.93;7.07;;;;;;;-0.32;90.77;99537.25;4500699;31;20118;-71
2022/01/27 03:54:13;;;;;;;17.33;6.22;;;;;;;-0.29;90.83;99515.72;4500688;31;20072;-71
2022/01/27 03:56:40;;;;;;;17.40;5.57;;;;;;;-0.35;91.27;99503.88;4500464;31;20096;-71
2022/01/27 03:59:08;;;;;;;13.70;6.03;;;;;;;-0.37;90.97;99510.81;4500506;31;20092;-71
2022/01/27 04:01:36;;;;;;;22.90;7.78;;;;;;;-0.37;90.76;99510.81;4500323;31;20164;-71
2022/01/27 04:04:04;;;;;;;15.52;6.72;;;;;;;-0.39;91.13;99502.31;4500927;31;20131;-71
2022/01/27 04:06:34;;;;;;;18.05;7.72;;;;;;;-0.41;91.21;99504.09;4500650;31;20243;-71
2022/01/27 04:09:06;;;;;;;11.45;5.32;;;;;;;-0.46;91.35;99506.81;4500444;31;20122;-71
2022/01/27 04:11:34;;;;;;;16.42;6.30;;;;;;;-0.47;91.78;99504.28;4500127;31;20639;-71
2022/01/27 04:14:02;;;;;;;17.12;6.07;;;;;;;-0.45;91.80;99502.53;4500270;31;20114;-71
2022/01/27 04:16:29;;;;;;;13.13;5.30;;;;;;;-0.45;91.96;99513.66;4500191;31;20525;-71
2022/01/27 04:18:56;;;;;;;13.65;6.37;;;;;;;-0.38;91.82;99516.84;4500419;31;20465;-71
2022/01/27 04:21:24;;;;;;;20.20;8.10;;;;;;;-0.50;92.02;99506.97;4500132;31;20100;-71
2022/01/27 04:23:51;;;;;;;18.23;7.93;;;;;;;-0.47;92.14;99505.16;4500307;31;20567;-71
2022/01/27 04:26:24;;;;;;;18.95;6.72;;;;;;;-0.46;92.27;99509.38;4500060;31;20096;-71
2022/01/27 04:28:52;;;;;;;15.63;6.40;;;;;;;-0.47;92.21;99515.44;4500294;31;20092;-71
2022/01/27 04:31:22;;;;;;;13.73;6.40;;;;;;;-0.46;92.32;99527.41;4499929;31;20144;-71
2022/01/27 04:33:49;;;;;;;17.87;7.75;;;;;;;-0.42;92.30;99521.28;4507554;31;20151;-71
2022/01/27 04:36:26;;;;;;;14.45;6.87;;;;;;;-0.45;92.31;99508.50;4516135;31;20092;-71
2022/01/27 04:41:57;;;;;;;17.67;6.82;;;;;;;-0.41;92.53;99491.22;4450336;32;20115;-71
2022/01/27 04:47:04;;;;;;;17.77;7.37;;;;;;;-0.51;92.65;99492.44;4450309;32;20105;-71
2022/01/27 04:49:31;;;;;;;17.83;7.55;;;;;;;-0.50;92.58;99505.25;4450567;32;20529;-71
2022/01/27 04:51:58;;;;;;;22.87;8.70;;;;;;;-0.48;92.59;99503.47;4450234;32;20092;-71
2022/01/27 04:54:32;;;;;;;22.05;8.95;;;;;;;-0.49;92.75;99512.06;4450387;32;20139;-71
2022/01/27 04:57:02;;;;;;;15.90;7.43;;;;;;;-0.47;92.54;99509.44;4450082;32;20130;-71
2022/01/27 04:59:35;;;;;;;18.08;8.23;;;;;;;-0.47;92.50;99510.28;4450171;32;20447;-71
2022/01/27 05:02:12;;;;;;;16.45;6.80;;;;;;;-0.46;92.28;99526.56;4449908;32;20117;-71
2022/01/27 05:04:43;;;;;;;21.33;8.23;;;;;;;-0.50;92.38;99523.25;4449191;32;20604;-71
2022/01/27 05:07:10;;;;;;;21.37;7.80;;;;;;;-0.42;92.00;99523.00;4446338;32;20550;-71
2022/01/27 05:09:46;;;;;;;21.55;8.45;;;;;;;-0.36;92.37;99525.38;4448757;32;20614;-71
2022/01/27 05:12:22;;;;;;;18.65;8.35;;;;;;;-0.28;92.27;99514.84;4446414;32;20583;-71
2022/01/27 05:14:51;;;;;;;17.02;7.55;;;;;;;-0.27;91.87;99512.22;4441169;32;20101;-71
2022/01/27 05:17:19;;;;;;;21.20;9.07;;;;;;;-0.26;91.43;99498.47;4443144;32;20114;-71
2022/01/27 05:19:47;;;;;;;18.40;7.43;;;;;;;-0.27;91.54;99503.63;4502507;31;20096;-71
2022/01/27 05:22:15;;;;;;;16.23;7.72;;;;;;;-0.32;91.60;99513.25;4513334;31;20103;-71
2022/01/27 05:24:42;;;;;;;21.17;8.48;;;;;;;-0.33;92.01;99511.56;4513738;31;20091;-71
2022/01/27 05:27:09;;;;;;;18.05;7.78;;;;;;;-0.36;91.95;99505.63;4497835;31;20127;-71
2022/01/27 05:29:36;;;;;;;23.45;9.02;;;;;;;-0.31;91.93;99505.47;4515077;31;20445;-71
2022/01/27 05:32:04;;;;;;;13.43;6.12;;;;;;;-0.34;92.30;99500.44;4511479;31;20164;-71
2022/01/27 05:34:32;;;;;;;24.85;8.95;;;;;;;-0.36;92.42;99505.63;4505592;31;20095;-71
2022/01/27 05:36:59;;;;;;;16.33;8.10;;;;;;;-0.37;92.61;99495.38;4513193;31;20126;-71
2022/01/27 05:39:26;;;;;;;21.92;9.43;;;;;;;-0.35;92.79;99498.72;4515488;31;20104;-71
2022/01/27 05:41:53;;;;;;;18.15;7.95;;;;;;;-0.33;92.44;99504.69;4516202;31;20114;-71
2022/01/27 05:44:21;;;;;;;15.82;7.12;;;;;;;-0.30;92.49;99499.44;4514591;31;20690;-71
2022/01/27 05:46:48;;;;;;;21.87;9.05;;;;;;;-0.30;92.55;99503.72;4515740;31;20111;-71
2022/01/27 05:49:15;;;;;;;22.83;8.38;;;;;;;-0.35;93.02;99503.88;4517118;31;20096;-71
2022/01/27 05:51:42;;;;;;;24.50;10.18;;;;;;;-0.30;92.73;99509.75;4514703;31;20126;-71
2022/01/27 05:54:10;;;;;;;20.80;8.98;;;;;;;-0.34;93.16;99513.31;4516431;31;20122;-71
2022/01/27 05:56:37;;;;;;;24.08;10.15;;;;;;;-0.33;93.21;99512.41;4516363;31;20091;-71
2022/01/27 05:59:04;;;;;;;22.10;9.80;;;;;;;-0.35;93.30;99509.03;4514957;31;20143;-71
2022/01/27 06:01:32;;;;;;;22.90;9.50;;;;;;;-0.38;93.55;99507.41;4513080;31;20096;-71
2022/01/27 06:04:00;;;;;;;18.83;9.38;;;;;;;-0.34;93.70;99503.00;4511227;31;20484;-71
2022/01/27 06:06:30;;;;;;;18.52;8.45;;;;;;;-0.27;93.32;99501.06;4515091;31;20449;-71
2022/01/27 06:08:57;;;;;;;23.73;9.65;;;;;;;-0.26;93.28;99498.47;4516233;31;20144;-71
2022/01/27 06:11:25;;;;;;;24.75;10.75;;;;;;;-0.22;93.08;99494.88;4513336;31;20134;-71
2022/01/27 06:13:52;;;;;;;24.92;9.90;;;;;;;-0.17;93.09;99494.72;4513666;31;20556;-72
2022/01/27 06:16:19;;;;;;;21.10;9.65;;;;;;;-0.19;93.19;99491.37;4506147;31;20100;-71
2022/01/27 06:18:47;;;;;;;19.77;9.32;;;;;;;-0.20;93.52;99487.94;4500109;31;20216;-72
2022/01/27 06:21:14;;;;;;;24.45;10.82;;;;;;;-0.32;94.19;99490.06;4501998;31;20174;-71
2022/01/27 06:23:41;;;;;;;28.33;9.68;;;;;;;-0.29;94.31;99484.84;4500911;31;20092;-72
2022/01/27 06:26:09;;;;;;;26.12;10.80;;;;;;;-0.17;93.82;99489.56;4500408;31;20100;-72
2022/01/27 06:28:36;;;;;;;25.80;10.32;;;;;;;-0.17;93.78;99492.13;4500099;31;21084;-72
2022/01/27 06:31:03;;;;;;;26.92;11.00;;;;;;;-0.23;94.30;99494.91;4502603;31;20448;-72
2022/01/27 06:33:31;;;;;;;23.42;10.45;;;;;;;-0.18;94.14;99493.06;4497919;31;20107;-72
2022/01/27 06:35:58;;;;;;;24.73;10.60;;;;;;;-0.21;94.30;99506.03;4501683;31;20411;-71
2022/01/27 06:38:26;;;;;;;25.40;10.13;;;;;;;-0.16;93.87;99505.87;4499753;31;20096;-72
2022/01/27 06:40:53;;;;;;;20.48;9.13;;;;;;;-0.13;93.81;99508.34;4501187;31;20438;-71
2022/01/27 06:43:20;;;;;;;28.23;10.13;;;;;;;-0.15;93.85;99516.13;4500890;31;20630;-71
2022/01/27 06:45:47;;;;;;;24.37;10.82;;;;;;;-0.14;94.28;99522.09;4499600;31;20123;-71
2022/01/27 06:48:15;;;;;;;24.55;11.10;;;;;;;-0.07;93.87;99529.56;4498516;31;20115;-71
2022/01/27 06:50:42;;;;;;;30.10;10.95;;;;;;;-0.11;93.85;99538.28;4491729;31;20123;-72
2022/01/27 06:53:09;;;;;;;28.17;10.60;;;;;;;-0.02;93.28;99539.72;4491591;31;20136;-71
2022/01/27 06:55:38;;;;;;;25.50;11.48;;;;;;;-0.06;93.66;99536.41;4496032;31;20137;-71
2022/01/27 06:58:05;;;;;;;29.58;11.20;;;;;;;-0.04;93.63;99550.06;4497997;31;20139;-71
2022/01/27 07:00:32;;;;;;;28.30;10.93;;;;;;;-0.02;93.53;99556.00;4499745;31;20454;-72
2022/01/27 07:03:00;;;;;;;29.45;11.60;;;;;;;-0.02;93.63;99547.44;4498008;31;20123;-72
2022/01/27 07:05:30;;;;;;;24.48;10.73;;;;;;;0.09;93.07;99539.34;4498953;31;20108;-70
2022/01/27 07:07:59;;;;;;;29.20;12.55;;;;;;;-0.01;93.46;99538.84;4493824;31;20130;-71
2022/01/27 07:10:27;;;;;;;27.87;10.85;;;;;;;0.08;93.22;99535.94;4496630;31;20108;-71
2022/01/27 07:12:54;;;;;;;26.35;10.65;;;;;;;0.09;92.88;99535.06;4501971;31;20539;-71
2022/01/27 07:15:21;;;;;;;27.08;10.18;;;;;;;0.12;92.84;99541.81;4505717;31;20122;-72
2022/01/27 07:17:48;;;;;;;24.75;10.75;;;;;;;0.12;92.71;99542.69;4511916;31;20103;-70
2022/01/27 07:20:17;;;;;;;26.33;10.15;;;;;;;0.07;92.39;99539.41;4515406;31;20099;-70
2022/01/27 07:22:44;;;;;;;25.70;10.13;;;;;;;0.13;92.21;99536.63;4515679;31;20143;-71
2022/01/27 07:25:12;;;;;;;23.83;10.48;;;;;;;0.05;92.67;99528.31;4515675;31;20134;-71
2022/01/27 07:27:39;;;;;;;23.70;10.07;;;;;;;0.01;92.37;99531.88;4515929;31;20544;-70
2022/01/27 07:30:07;;;;;;;24.50;10.98;;;;;;;0.05;92.19;99528.31;4514431;31;20151;-71
2022/01/27 07:32:34;;;;;;;30.60;11.20;;;;;;;0.09;91.81;99516.16;4515672;31;20123;-71
2022/01/27 07:35:04;;;;;;;23.05;9.85;;;;;;;0.11;91.75;99511.81;4500996;31;20121;-72
2022/01/27 07:37:31;;;;;;;25.33;10.75;;;;;;;0.09;91.26;99511.03;4514988;31;20122;-72
2022/01/27 07:39:58;;;;;;;19.83;9.07;;;;;;;0.21;91.03;99513.16;4512503;31;20107;-72
2022/01/27 07:42:25;;;;;;;27.08;10.60;;;;;;;0.17;90.71;99512.44;4515126;31;20463;-72
2022/01/27 07:44:53;;;;;;;24.05;10.52;;;;;;;0.14;90.71;99506.56;4514138;31;20099;-72
2022/01/27 07:47:21;;;;;;;24.50;10.27;;;;;;;0.16;90.72;99497.87;4500498;31;20386;-71
2022/01/27 07:49:48;;;;;;;25.12;10.68;;;;;;;0.19;90.29;99498.69;4516145;31;20084;-71
2022/01/27 07:52:18;;;;;;;21.67;9.68;;;;;;;0.15;90.28;99503.94;4515601;31;20091;-70
2022/01/27 07:54:45;;;;;;;21.15;9.80;;;;;;;0.23;90.21;99497.66;4515485;31;20127;-70
2022/01/27 07:57:12;;;;;;;22.70;9.15;;;;;;;0.24;89.90;99489.03;4514282;31;20151;-71
2022/01/27 07:59:40;;;;;;;24.37;9.93;;;;;;;0.29;89.70;99484.59;4499007;31;20159;-72
2022/01/27 08:02:07;;;;;;;22.92;9.57;;;;;;;0.29;89.78;99494.88;4513204;31;20408;-72
2022/01/27 08:04:35;;;;;;;21.10;9.35;;;;;;;0.29;89.57;99489.72;4494615;31;20095;-72
2022/01/27 08:07:02;;;;;;;28.52;10.90;;;;;;;0.43;89.16;99494.38;4515303;31;20100;-72
2022/01/27 08:09:30;;;;;;;21.20;7.80;;;;;;;0.39;88.59;99496.22;4515160;31;20103;-72
2022/01/27 08:11:57;;;;;;;23.75;9.40;;;;;;;0.47;87.90;99494.22;4515301;31;20103;-72
2022/01/27 08:14:24;;;;;;;23.55;10.90;;;;;;;0.49;88.08;99491.59;4514307;31;20089;-70
2022/01/27 08:16:51;;;;;;;22.15;9.07;;;;;;;0.63;87.42;99484.16;4514134;31;20134;-71
2022/01/27 08:19:19;;;;;;;25.48;9.57;;;;;;;0.78;86.11;99481.94;4512370;31;20127;-71
2022/01/27 08:21:46;;;;;;;18.87;7.75;;;;;;;0.83;86.28;99482.59;4514757;31;20099;-71
2022/01/27 08:24:15;;;;;;;17.05;6.10;;;;;;;0.87;85.74;99484.16;4515063;31;20119;-70
2022/01/27 08:26:45;;;;;;;22.83;9.65;;;;;;;0.88;85.74;99489.25;4514873;31;20528;-72
2022/01/27 08:29:19;;;;;;;15.63;7.43;;;;;;;0.99;85.39;99481.13;4515894;31;20138;-71
2022/01/27 08:32:10;;;;;;;20.73;8.35;;;;;;;1.08;84.49;99484.25;4514380;31;20092;-71
2022/01/27 08:34:41;;;;;;;13.65;6.80;;;;;;;1.29;83.91;99486.00;4512486;31;20797;-71
2022/01/27 08:37:11;;;;;;;24.40;9.32;;;;;;;1.39;83.37;99489.03;4508837;31;20199;-71
2022/01/27 08:39:39;;;;;;;21.98;9.07;;;;;;;1.54;82.53;99480.66;4512414;31;20096;-71
2022/01/27 08:42:07;;;;;;;18.98;8.73;;;;;;;1.71;82.26;99479.12;4513163;31;20095;-71
2022/01/27 08:44:36;;;;;;;23.73;10.27;;;;;;;1.77;81.45;99484.03;4512131;31;20104;-71
2022/01/27 08:47:04;;;;;;;18.87;8.38;;;;;;;1.84;80.32;99475.13;4512460;31;20516;-73
2022/01/27 08:49:32;;;;;;;18.27;8.43;;;;;;;1.83;80.61;99473.44;4511956;31;20468;-72
2022/01/27 08:52:00;;;;;;;21.30;7.53;;;;;;;1.98;80.41;99482.28;4509448;31;20112;-71
2022/01/27 08:54:27;;;;;;;17.30;7.97;;;;;;;2.11;79.99;99478.28;4512078;31;20446;-71
2022/01/27 08:56:54;;;;;;;20.15;8.55;;;;;;;2.05;78.94;99482.91;4514151;31;20118;-71
2022/01/27 08:59:21;;;;;;;16.45;8.07;;;;;;;1.90;79.02;99482.63;4516090;31;20138;-70
2022/01/27 09:01:49;;;;;;;20.20;9.23;;;;;;;1.92;79.45;99483.41;4517401;31;20114;-71
2022/01/27 09:04:16;;;;;;;18.17;7.87;;;;;;;1.88;79.93;99481.88;4516214;31;20115;-71
2022/01/27 09:06:44;;;;;;;16.58;7.45;;;;;;;1.91;79.39;99481.72;4508442;31;20144;-70
2022/01/27 09:09:11;;;;;;;24.10;9.80;;;;;;;2.08;78.68;99473.25;4514840;31;20091;-73
2022/01/27 09:11:39;;;;;;;16.20;7.25;;;;;;;2.09;78.53;99485.28;4515378;31;20111;-72
2022/01/27 09:14:07;;;;;;;17.75;7.70;;;;;;;1.99;78.22;99493.50;4516461;31;20520;-70
2022/01/27 09:16:35;;;;;;;18.98;7.78;;;;;;;1.85;78.65;99483.75;4515865;31;20072;-71
2022/01/27 09:19:25;;;;;;;18.85;7.47;;;;;;;1.79;79.16;99479.66;4515138;31;20122;-72
2022/01/27 09:21:55;;;;;;;14.48;6.80;;;;;;;1.93;78.60;99477.31;4499140;31;20480;-69
2022/01/27 09:24:36;;;;;;;18.55;8.45;;;;;;;1.95;78.52;99492.75;4519458;31;20123;-71
2022/01/27 09:27:03;;;;;;;19.73;6.68;;;;;;;2.01;78.34;99489.91;4515092;31;20092;-71
2022/01/27 09:29:31;;;;;;;15.30;6.65;;;;;;;2.23;77.75;99492.44;4514326;31;20155;-72
2022/01/27 09:31:59;;;;;;;20.75;7.60;;;;;;;2.06;76.94;99494.88;4516534;31;20109;-72
2022/01/27 09:34:26;;;;;;;12.70;6.12;;;;;;;2.27;77.33;99488.81;4512801;31;20472;-71
2022/01/27 09:36:54;;;;;;;17.05;6.97;;;;;;;2.33;75.97;99497.19;4516579;31;20103;-72
2022/01/27 09:39:23;;;;;;;15.45;7.35;;;;;;;2.29;76.92;99491.34;4501872;31;20155;-71
2022/01/27 09:41:54;;;;;;;11.45;6.05;;;;;;;2.26;76.47;99497.47;4505921;31;20115;-71
2022/01/27 09:44:28;;;;;;;21.73;7.30;;;;;;;2.23;76.41;99494.19;4514762;31;20103;-70
2022/01/27 09:46:59;;;;;;;15.77;7.00;;;;;;;2.27;76.42;99487.97;4514319;31;20114;-70
2022/01/27 09:50:22;;;;;;;12.50;6.25;;;;;;;2.16;76.18;99475.50;4515679;31;20148;-70
2022/01/27 09:52:17;;;;;;;17.15;8.07;;;;;;;2.37;75.91;99465.16;4501562;31;20088;-71
2022/01/27 09:54:45;;;;;;;19.50;8.95;;;;;;;2.55;75.95;99466.91;4507553;31;20107;-71
2022/01/27 09:57:17;;;;;;;15.38;6.43;;;;;;;2.57;75.80;99470.25;4496333;31;20130;-71
2022/01/27 09:59:45;;;;;;;18.58;7.93;;;;;;;2.54;75.38;99465.22;4504376;31;20088;-70
2022/01/27 10:02:18;;;;;;;13.75;5.35;;;;;;;2.29;76.14;99465.50;4508873;31;20766;-70
2022/01/27 10:04:48;;;;;;;18.58;7.95;;;;;;;2.25;76.48;99474.28;4515172;31;20484;-70
2022/01/27 10:07:19;;;;;;;14.27;6.05;;;;;;;2.27;77.23;99478.47;4512989;31;20149;-70
2022/01/27 10:10:06;;;;;;;14.27;6.18;;;;;;;2.49;76.07;99477.53;4516647;31;20095;-70
2022/01/27 10:12:38;;;;;;;15.32;6.78;;;;;;;2.38;76.06;99475.41;4517169;31;20105;-70
2022/01/27 10:15:09;;;;;;;19.33;7.97;;;;;;;2.30;76.57;99473.19;4503640;31;20512;-71
2022/01/27 10:17:39;;;;;;;16.92;7.07;;;;;;;2.45;76.09;99461.31;4500963;31;20132;-70
2022/01/27 10:20:17;;;;;;;15.85;7.35;;;;;;;2.53;74.64;99462.69;4503830;31;20892;-71
2022/01/27 10:23:07;;;;;;;15.68;6.90;;;;;;;2.51;75.23;99449.84;4507119;31;20091;-71
2022/01/27 10:25:36;;;;;;;17.52;6.50;;;;;;;2.69;74.56;99449.91;4514792;31;20091;-70
2022/01/27 10:28:57;;;;;;;17.20;6.35;;;;;;;2.56;74.36;99426.34;4506026;31;20499;-70
2022/01/27 10:31:26;;;;;;;16.52;6.90;;;;;;;2.56;73.79;99431.53;4507220;31;20133;-70
2022/01/27 10:33:58;;;;;;;15.63;6.28;;;;;;;2.62;73.94;99415.72;4507431;31;20096;-70
2022/01/27 10:36:32;;;;;;;18.77;7.87;;;;;;;2.51;74.56;99425.72;4507786;31;20092;-70
2022/01/27 10:39:05;;;;;;;19.12;7.70;;;;;;;2.53;74.43;99419.59;4512627;31;20118;-71
2022/01/27 10:41:35;;;;;;;13.77;6.72;;;;;;;2.58;74.38;99415.03;4507075;31;20115;-71
2022/01/27 10:44:12;;;;;;;17.95;7.03;;;;;;;2.62;73.96;99415.72;4515430;31;20087;-71
2022/01/27 10:46:49;;;;;;;14.07;6.85;;;;;;;2.49;74.24;99405.09;4516141;31;20119;-71
2022/01/27 10:49:25;;;;;;;19.37;7.90;;;;;;;2.47;74.83;99396.59;4499302;31;20115;-72
2022/01/27 10:51:54;;;;;;;19.25;7.78;;;;;;;2.38;75.27;99397.84;4510677;31;20597;-71
2022/01/27 10:54:38;;;;;;;19.85;8.38;;;;;;;2.59;76.26;99390.84;4515468;31;20780;-71
2022/01/27 10:57:12;;;;;;;17.40;7.12;;;;;;;2.81;74.76;99388.06;4514625;31;20176;-72
2022/01/27 10:59:41;;;;;;;22.95;8.38;;;;;;;2.92;73.09;99391.91;4515381;31;20496;-72
2022/01/27 11:02:12;;;;;;;17.37;7.45;;;;;;;2.86;74.32;99387.84;4516131;31;20115;-73
2022/01/27 11:04:41;;;;;;;21.37;8.07;;;;;;;2.81;74.47;99375.13;4514637;31;20499;-72
2022/01/27 11:07:11;;;;;;;17.10;7.82;;;;;;;2.86;74.28;99372.34;4516112;31;20782;-72
2022/01/27 11:09:42;;;;;;;22.90;9.40;;;;;;;2.79;73.66;99374.38;4516592;31;20092;-73
2022/01/27 11:12:17;;;;;;;19.62;8.80;;;;;;;2.87;74.15;99373.19;4515941;31;20477;-72
2022/01/27 11:14:48;;;;;;;24.20;9.82;;;;;;;2.94;73.34;99384.94;4516353;31;20127;-72
2022/01/27 11:17:19;;;;;;;24.10;10.32;;;;;;;2.95;73.38;99376.22;4514878;31;20122;-71
2022/01/27 11:27:32;;;;;;;23.73;10.48;;;;;;;3.30;71.58;99376.25;4515733;31;20079;-73
2022/01/27 11:30:08;;;;;;;23.83;9.65;;;;;;;3.07;72.20;99357.50;4495619;31;20103;-72
2022/01/27 11:32:45;;;;;;;31.98;12.13;;;;;;;3.05;72.63;99358.53;4512617;31;20148;-71
2022/01/27 11:35:23;;;;;;;24.55;10.35;;;;;;;3.29;72.87;99354.72;4517143;31;20092;-71
2022/01/27 11:37:55;;;;;;;23.35;10.98;;;;;;;3.56;70.99;99346.47;4518646;31;20099;-71
2022/01/27 11:40:33;;;;;;;24.73;11.30;;;;;;;3.63;70.15;99347.81;4514750;31;20779;-72
2022/01/27 11:43:10;;;;;;;24.12;9.02;;;;;;;3.62;69.75;99346.16;4513815;31;20492;-71
2022/01/27 11:45:46;;;;;;;24.92;9.88;;;;;;;3.38;70.25;99340.47;4512877;31;20087;-71
2022/01/27 11:48:15;;;;;;;24.23;11.15;;;;;;;3.16;71.66;99341.56;4498924;31;20696;-71
2022/01/27 11:50:57;;;;;;;24.37;10.68;;;;;;;3.13;72.65;99327.91;4515771;31;20103;-71
2022/01/27 11:53:34;;;;;;;33.05;10.40;;;;;;;3.19;72.26;99332.78;4520300;31;20128;-71
2022/01/27 11:56:04;;;;;;;27.33;10.30;;;;;;;3.17;72.40;99322.50;4514283;31;20088;-71
2022/01/27 11:58:43;;;;;;;27.90;11.68;;;;;;;3.40;72.07;99327.44;4513349;31;20126;-71
2022/01/27 12:01:25;;;;;;;30.58;11.57;;;;;;;3.52;71.61;99329.41;4511431;31;20095;-71
2022/01/27 12:04:07;;;;;;;28.77;11.45;;;;;;;3.64;71.92;99318.41;4510795;31;20107;-71
2022/01/27 12:06:39;;;;;;;29.15;11.43;;;;;;;3.63;71.86;99311.53;4512392;31;20085;-71
2022/01/27 12:09:19;;;;;;;21.77;9.98;;;;;;;3.63;71.15;99316.72;4510124;31;20126;-71
2022/01/27 12:11:52;;;;;;;28.15;11.52;;;;;;;3.57;71.31;99309.28;4512663;31;20110;-71
2022/01/27 12:14:24;;;;;;;28.73;11.68;;;;;;;3.62;71.89;99315.06;4514877;31;20541;-71
2022/01/27 12:17:10;;;;;;;30.52;11.50;;;;;;;3.70;71.07;99307.72;4500847;31;20127;-71
2022/01/27 12:19:54;;;;;;;27.55;10.95;;;;;;;3.80;71.03;99309.84;4515828;31;20115;-71
2022/01/27 12:22:24;;;;;;;31.42;13.27;;;;;;;3.78;70.52;99309.09;4512655;31;20092;-71
2022/01/27 12:24:59;;;;;;;28.30;11.23;;;;;;;3.79;71.21;99309.00;4517244;31;20134;-71
2022/01/27 12:27:28;;;;;;;23.80;10.38;;;;;;;3.85;70.43;99303.50;4516410;31;20422;-71
2022/01/27 12:30:16;;;;;;;29.48;11.52;;;;;;;3.81;70.72;99306.34;4507532;31;20156;-71
2022/01/27 12:32:44;;;;;;;30.35;10.75;;;;;;;3.83;70.57;99299.31;4517679;31;20091;-70